Pudu — CBPJ — position and weather

sailwx.info

Track history (hours):
 
Tides and Currents Weather Stations Pressure Air Temp Water Temp Dewpoint Dewpoint Depression Visibility Wind Speed Wind Dir Waves Ship Positions

Pudu

Last reported at 2018-Jan-20 22:58 UTC. Time now 2018-Jan-21 10:49 UTC.
Position S 33°07' W 071°54'.

Length 183 m; draft 10.4 m.

Type: Tanker. MMSI: 725001925.

Date/timePositionNaut miles runAvg speedWind from/ knotsBaromVisibWave heightAir tempDewpointWater temp
2018-Jan-20 22:58S 33°07' W 071°54'511.1
2018-Jan-20 22:30S 33°01' W 071°53'510.8
2018-Jan-20 22:01S 32°56' W 071°53'510.7
2018-Jan-20 21:31S 32°51' W 071°53'510.8
2018-Jan-20 21:00S 32°45' W 071°53'510.5
2018-Jan-20 20:30S 32°40' W 071°53'  
2018-Jan-11 19:44S 32°45' W 071°30'0 0.4
2018-Jan-11 19:30S 32°45' W 071°30'2 3.1
2018-Jan-11 19:00S 32°45' W 071°32'4 7.3
2018-Jan-11 18:30S 32°46' W 071°36'611.9
2018-Jan-11 18:00S 32°51' W 071°39'612.4
2018-Jan-11 17:30S 32°56' W 071°43'  
Track history (hours):
 
Tides and Currents Weather Stations Pressure Air Temp Water Temp Dewpoint Dewpoint Depression Visibility Wind Speed Wind Dir Waves Ship Positions

Pudu

Last reported at 2018-Jan-20 22:58 UTC. Time now 2018-Jan-21 10:49 UTC.
Position S 33°07' W 071°54'.

Length 183 m; draft 10.4 m.

Type: Tanker. MMSI: 725001925.

Date/timePositionNaut miles runAvg speedWind from/ knotsBaromVisibWave heightAir tempDewpointWater temp
2018-Jan-20 22:58S 33°07' W 071°54'511.1
2018-Jan-20 22:30S 33°01' W 071°53'510.8
2018-Jan-20 22:01S 32°56' W 071°53'510.7
2018-Jan-20 21:31S 32°51' W 071°53'510.8
2018-Jan-20 21:00S 32°45' W 071°53'510.5
2018-Jan-20 20:30S 32°40' W 071°53'  
2018-Jan-11 19:44S 32°45' W 071°30'0 0.4
2018-Jan-11 19:30S 32°45' W 071°30'2 3.1
2018-Jan-11 19:00S 32°45' W 071°32'4 7.3
2018-Jan-11 18:30S 32°46' W 071°36'611.9
2018-Jan-11 18:00S 32°51' W 071°39'612.4
2018-Jan-11 17:30S 32°56' W 071°43'  

Dump ship's entire track history